LIED/DCI METAR and TAF weather

Enter ICAO airport designator
Station Type Date Time Source
LIED METAR 2020/01/27 09:55 UTC NOAA

LIED 270955Z 31003KT 9999 FEW025 15/11 Q1023 RMK FEW VIS MIN 9999 WIND THR35 33002KT WIND THR17 /////KT BLU


Station Type Date Time Source
LIED Decoded METAR 2020/01/27 09:55 UTC NOAA

Decimomannu, Italy (LIED) 39-21N 008-58E 28M
Jan 27, 2020 - 04:55 AM EST / 2020.01.27 0955 UTC
Wind: from the NW (310 degrees) at 3 MPH (3 KT):0
Visibility: greater than 7 mile(s):0
Sky conditions: mostly clear
Temperature: 59 F (15 C)
Dew Point: 51 F (11 C)
Relative Humidity: 76%
Pressure (altimeter): 30.21 in. Hg (1023 hPa)
ob: LIED 270955Z 31003KT 9999 FEW025 15/11 Q1023 RMK FEW VIS MIN 9999 WIND THR35 33002KT WIND THR17 /////KT BLU
cycle: 10

Station Type Date Time Source
LIED TAF 2015/03/04 18:18 UTC NOAA

TAF TAF LIED 041700Z 0418/0506 33014KT 9999 SCT020 BKN040 BKN060
TEMPO 0420/0502 33020KT 5000 RA OR SHRA FEW022CB

Example: see airport list